sensor_id;sensor_type;location;lat;lon;timestamp;temperature;humidity
54082;DHT22;39986;50.770;0.266;2022-10-31T00:00:18;15.80;99.90
54082;DHT22;39986;50.770;0.266;2022-10-31T00:02:44;15.70;99.90
54082;DHT22;39986;50.770;0.266;2022-10-31T00:05:09;15.80;99.90
54082;DHT22;39986;50.770;0.266;2022-10-31T00:07:35;15.70;99.90
54082;DHT22;39986;50.770;0.266;2022-10-31T00:10:01;15.70;99.90
54082;DHT22;39986;50.770;0.266;2022-10-31T00:12:26;15.70;99.90
54082;DHT22;39986;50.770;0.266;2022-10-31T00:14:52;15.80;99.90
54082;DHT22;39986;50.770;0.266;2022-10-31T00:17:17;15.80;99.90
54082;DHT22;39986;50.770;0.266;2022-10-31T00:19:43;15.70;99.90
54082;DHT22;39986;50.770;0.266;2022-10-31T00:22:35;15.70;99.90
54082;DHT22;39986;50.770;0.266;2022-10-31T00:25:01;15.70;99.90
54082;DHT22;39986;50.770;0.266;2022-10-31T00:27:26;15.70;99.90
54082;DHT22;39986;50.770;0.266;2022-10-31T00:29:52;15.70;99.90
54082;DHT22;39986;50.770;0.266;2022-10-31T00:32:17;15.70;99.90
54082;DHT22;39986;50.770;0.266;2022-10-31T00:34:43;15.60;99.90
54082;DHT22;39986;50.770;0.266;2022-10-31T00:37:09;15.60;99.90
54082;DHT22;39986;50.770;0.266;2022-10-31T00:39:34;15.60;99.90
54082;DHT22;39986;50.770;0.266;2022-10-31T00:42:00;15.50;99.90
54082;DHT22;39986;50.770;0.266;2022-10-31T00:44:25;15.50;99.90
54082;DHT22;39986;50.770;0.266;2022-10-31T00:46:51;15.50;99.90
54082;DHT22;39986;50.770;0.266;2022-10-31T00:49:16;15.50;99.90
54082;DHT22;39986;50.770;0.266;2022-10-31T00:51:42;15.40;99.90
54082;DHT22;39986;50.770;0.266;2022-10-31T00:54:09;15.50;99.90
54082;DHT22;39986;50.770;0.266;2022-10-31T00:56:34;15.40;99.90
54082;DHT22;39986;50.770;0.266;2022-10-31T00:59:00;15.40;99.90
54082;DHT22;39986;50.770;0.266;2022-10-31T01:01:25;15.40;99.90
54082;DHT22;39986;50.770;0.266;2022-10-31T01:03:51;15.40;99.90
54082;DHT22;39986;50.770;0.266;2022-10-31T01:06:16;15.40;99.90
54082;DHT22;39986;50.770;0.266;2022-10-31T01:08:42;15.40;99.90
54082;DHT22;39986;50.770;0.266;2022-10-31T01:16:28;15.50;99.90
54082;DHT22;39986;50.770;0.266;2022-10-31T01:18:56;15.60;99.90
54082;DHT22;39986;50.770;0.266;2022-10-31T01:21:23;15.60;99.90
54082;DHT22;39986;50.770;0.266;2022-10-31T01:23:49;15.60;99.90
54082;DHT22;39986;50.770;0.266;2022-10-31T01:28:48;15.60;99.90
54082;DHT22;39986;50.770;0.266;2022-10-31T01:31:14;15.60;99.90
54082;DHT22;39986;50.770;0.266;2022-10-31T01:33:40;15.50;99.90
54082;DHT22;39986;50.770;0.266;2022-10-31T01:36:25;15.50;99.90
54082;DHT22;39986;50.770;0.266;2022-10-31T01:38:52;15.40;99.90
54082;DHT22;39986;50.770;0.266;2022-10-31T01:41:19;15.40;99.90
54082;DHT22;39986;50.770;0.266;2022-10-31T01:46:15;15.40;99.90
54082;DHT22;39986;50.770;0.266;2022-10-31T01:48:41;15.40;99.90
54082;DHT22;39986;50.770;0.266;2022-10-31T01:51:07;15.40;99.90
54082;DHT22;39986;50.770;0.266;2022-10-31T01:53:33;15.40;99.90
54082;DHT22;39986;50.770;0.266;2022-10-31T01:56:00;15.40;99.90
54082;DHT22;39986;50.770;0.266;2022-10-31T01:58:27;15.40;99.90
54082;DHT22;39986;50.770;0.266;2022-10-31T02:00:54;15.40;99.90
54082;DHT22;39986;50.770;0.266;2022-10-31T02:03:21;15.40;99.90
54082;DHT22;39986;50.770;0.266;2022-10-31T02:05:47;15.40;99.90
54082;DHT22;39986;50.770;0.266;2022-10-31T02:08:34;15.40;99.90
54082;DHT22;39986;50.770;0.266;2022-10-31T02:10:59;14.20;99.90
54082;DHT22;39986;50.770;0.266;2022-10-31T02:13:25;15.30;99.90
54082;DHT22;39986;50.770;0.266;2022-10-31T02:15:52;15.20;99.90
54082;DHT22;39986;50.770;0.266;2022-10-31T02:18:17;15.20;99.90
54082;DHT22;39986;50.770;0.266;2022-10-31T02:33:39;15.30;99.90
54082;DHT22;39986;50.770;0.266;2022-10-31T02:36:16;15.30;99.90
54082;DHT22;39986;50.770;0.266;2022-10-31T02:41:44;15.30;99.90
54082;DHT22;39986;50.770;0.266;2022-10-31T02:49:23;15.40;99.90
54082;DHT22;39986;50.770;0.266;2022-10-31T02:51:50;16.50;99.90
54082;DHT22;39986;50.770;0.266;2022-10-31T02:54:17;15.50;99.90
54082;DHT22;39986;50.770;0.266;2022-10-31T02:56:43;15.50;99.90
54082;DHT22;39986;50.770;0.266;2022-10-31T02:59:10;15.40;99.90
54082;DHT22;39986;50.770;0.266;2022-10-31T03:04:21;15.50;99.90
54082;DHT22;39986;50.770;0.266;2022-10-31T03:09:26;15.40;99.90
54082;DHT22;39986;50.770;0.266;2022-10-31T03:11:56;15.40;99.90
54082;DHT22;39986;50.770;0.266;2022-10-31T03:14:38;15.30;99.90
54082;DHT22;39986;50.770;0.266;2022-10-31T03:17:05;15.30;99.90
54082;DHT22;39986;50.770;0.266;2022-10-31T03:19:34;15.30;99.90
54082;DHT22;39986;50.770;0.266;2022-10-31T03:22:02;15.30;99.90
54082;DHT22;39986;50.770;0.266;2022-10-31T03:24:30;15.30;99.90
54082;DHT22;39986;50.770;0.266;2022-10-31T03:26:57;15.30;99.90
54082;DHT22;39986;50.770;0.266;2022-10-31T03:29:26;15.30;99.90
54082;DHT22;39986;50.770;0.266;2022-10-31T03:32:06;15.20;99.90
54082;DHT22;39986;50.770;0.266;2022-10-31T03:34:34;15.20;99.90
54082;DHT22;39986;50.770;0.266;2022-10-31T03:37:01;15.20;99.90
54082;DHT22;39986;50.770;0.266;2022-10-31T03:39:28;15.20;99.90
54082;DHT22;39986;50.770;0.266;2022-10-31T03:41:55;13.70;99.90
54082;DHT22;39986;50.770;0.266;2022-10-31T03:44:22;15.20;99.90
54082;DHT22;39986;50.770;0.266;2022-10-31T03:46:49;15.20;99.90
54082;DHT22;39986;50.770;0.266;2022-10-31T03:49:15;15.20;99.90
54082;DHT22;39986;50.770;0.266;2022-10-31T03:54:27;15.20;99.90
54082;DHT22;39986;50.770;0.266;2022-10-31T03:56:57;15.10;99.90
54082;DHT22;39986;50.770;0.266;2022-10-31T03:59:27;15.10;99.90
54082;DHT22;39986;50.770;0.266;2022-10-31T04:01:55;15.10;99.90
54082;DHT22;39986;50.770;0.266;2022-10-31T04:04:22;15.00;99.90
54082;DHT22;39986;50.770;0.266;2022-10-31T04:06:47;15.00;99.90
54082;DHT22;39986;50.770;0.266;2022-10-31T04:09:14;15.00;99.90
54082;DHT22;39986;50.770;0.266;2022-10-31T04:11:42;15.00;99.90
54082;DHT22;39986;50.770;0.266;2022-10-31T04:14:09;15.10;99.90
54082;DHT22;39986;50.770;0.266;2022-10-31T04:16:39;15.10;99.90
54082;DHT22;39986;50.770;0.266;2022-10-31T04:19:04;15.20;99.90
54082;DHT22;39986;50.770;0.266;2022-10-31T04:21:30;15.30;99.90
54082;DHT22;39986;50.770;0.266;2022-10-31T04:23:56;15.30;99.90
54082;DHT22;39986;50.770;0.266;2022-10-31T04:26:21;15.30;99.90
54082;DHT22;39986;50.770;0.266;2022-10-31T04:28:47;15.30;99.90
54082;DHT22;39986;50.770;0.266;2022-10-31T04:31:13;15.30;99.90
54082;DHT22;39986;50.770;0.266;2022-10-31T04:33:42;15.30;99.90
54082;DHT22;39986;50.770;0.266;2022-10-31T04:36:08;14.70;99.90
54082;DHT22;39986;50.770;0.266;2022-10-31T04:38:33;15.30;99.90
54082;DHT22;39986;50.770;0.266;2022-10-31T04:40:59;15.30;99.90
54082;DHT22;39986;50.770;0.266;2022-10-31T04:43:24;15.30;99.90
54082;DHT22;39986;50.770;0.266;2022-10-31T04:45:50;15.30;99.90
54082;DHT22;39986;50.770;0.266;2022-10-31T04:48:16;15.30;99.90
54082;DHT22;39986;50.770;0.266;2022-10-31T04:50:42;15.20;99.90
54082;DHT22;39986;50.770;0.266;2022-10-31T04:53:07;15.20;99.90
54082;DHT22;39986;50.770;0.266;2022-10-31T04:55:33;15.30;99.90
54082;DHT22;39986;50.770;0.266;2022-10-31T04:58:00;15.20;99.90
54082;DHT22;39986;50.770;0.266;2022-10-31T05:00:25;15.20;99.90
54082;DHT22;39986;50.770;0.266;2022-10-31T05:02:53;15.30;99.90
54082;DHT22;39986;50.770;0.266;2022-10-31T05:05:20;15.20;99.90
54082;DHT22;39986;50.770;0.266;2022-10-31T05:07:46;15.20;99.90
54082;DHT22;39986;50.770;0.266;2022-10-31T05:10:13;15.10;99.90
54082;DHT22;39986;50.770;0.266;2022-10-31T05:12:48;15.10;99.90
54082;DHT22;39986;50.770;0.266;2022-10-31T05:15:13;15.00;99.90
54082;DHT22;39986;50.770;0.266;2022-10-31T05:17:39;13.30;99.90
54082;DHT22;39986;50.770;0.266;2022-10-31T05:20:05;15.00;99.90
54082;DHT22;39986;50.770;0.266;2022-10-31T05:22:31;15.00;99.90
54082;DHT22;39986;50.770;0.266;2022-10-31T05:24:56;15.00;99.90
54082;DHT22;39986;50.770;0.266;2022-10-31T05:27:22;15.10;99.90
54082;DHT22;39986;50.770;0.266;2022-10-31T05:29:48;15.10;99.90
54082;DHT22;39986;50.770;0.266;2022-10-31T05:32:14;15.10;99.90
54082;DHT22;39986;50.770;0.266;2022-10-31T05:34:40;15.10;99.90
54082;DHT22;39986;50.770;0.266;2022-10-31T05:37:05;15.20;99.90
54082;DHT22;39986;50.770;0.266;2022-10-31T05:39:31;15.20;99.90
54082;DHT22;39986;50.770;0.266;2022-10-31T05:41:56;15.20;99.90
54082;DHT22;39986;50.770;0.266;2022-10-31T05:44:22;15.10;99.90
54082;DHT22;39986;50.770;0.266;2022-10-31T05:46:48;15.20;99.90
54082;DHT22;39986;50.770;0.266;2022-10-31T05:49:13;15.10;99.90
54082;DHT22;39986;50.770;0.266;2022-10-31T05:51:39;15.10;99.90
54082;DHT22;39986;50.770;0.266;2022-10-31T05:54:05;15.00;99.90
54082;DHT22;39986;50.770;0.266;2022-10-31T05:56:30;15.10;99.90
54082;DHT22;39986;50.770;0.266;2022-10-31T05:58:56;15.00;99.90
54082;DHT22;39986;50.770;0.266;2022-10-31T06:01:21;15.00;99.90
54082;DHT22;39986;50.770;0.266;2022-10-31T06:03:47;15.00;99.90
54082;DHT22;39986;50.770;0.266;2022-10-31T06:06:13;15.00;99.90
54082;DHT22;39986;50.770;0.266;2022-10-31T06:08:39;15.10;99.90
54082;DHT22;39986;50.770;0.266;2022-10-31T06:11:05;15.10;99.90
54082;DHT22;39986;50.770;0.266;2022-10-31T06:13:30;15.10;99.90
54082;DHT22;39986;50.770;0.266;2022-10-31T06:15:56;15.10;99.90
54082;DHT22;39986;50.770;0.266;2022-10-31T06:18:22;15.10;99.90
54082;DHT22;39986;50.770;0.266;2022-10-31T06:20:47;15.10;99.90
54082;DHT22;39986;50.770;0.266;2022-10-31T06:23:13;15.10;99.90
54082;DHT22;39986;50.770;0.266;2022-10-31T06:25:39;15.10;99.90
54082;DHT22;39986;50.770;0.266;2022-10-31T06:28:05;15.10;99.90
54082;DHT22;39986;50.770;0.266;2022-10-31T06:30:30;15.00;99.90
54082;DHT22;39986;50.770;0.266;2022-10-31T06:33:20;15.00;99.90
54082;DHT22;39986;50.770;0.266;2022-10-31T06:35:46;14.90;99.90
54082;DHT22;39986;50.770;0.266;2022-10-31T06:38:12;14.90;99.90
54082;DHT22;39986;50.770;0.266;2022-10-31T06:40:38;14.90;99.90
54082;DHT22;39986;50.770;0.266;2022-10-31T06:43:04;14.90;99.90
54082;DHT22;39986;50.770;0.266;2022-10-31T06:45:29;14.80;99.90
54082;DHT22;39986;50.770;0.266;2022-10-31T06:47:55;14.80;99.90
54082;DHT22;39986;50.770;0.266;2022-10-31T06:50:21;14.80;99.90
54082;DHT22;39986;50.770;0.266;2022-10-31T06:52:54;14.80;99.90
54082;DHT22;39986;50.770;0.266;2022-10-31T06:55:20;14.80;99.90
54082;DHT22;39986;50.770;0.266;2022-10-31T06:57:52;13.30;99.90
54082;DHT22;39986;50.770;0.266;2022-10-31T07:00:19;14.70;99.90
54082;DHT22;39986;50.770;0.266;2022-10-31T07:02:52;16.50;99.90
54082;DHT22;39986;50.770;0.266;2022-10-31T07:05:18;14.70;99.90
54082;DHT22;39986;50.770;0.266;2022-10-31T07:07:43;14.70;99.90
54082;DHT22;39986;50.770;0.266;2022-10-31T07:10:09;14.70;99.90
54082;DHT22;39986;50.770;0.266;2022-10-31T07:12:34;14.70;99.90
54082;DHT22;39986;50.770;0.266;2022-10-31T07:15:00;14.80;99.90
54082;DHT22;39986;50.770;0.266;2022-10-31T07:17:26;14.80;99.90
54082;DHT22;39986;50.770;0.266;2022-10-31T07:19:51;14.80;99.90
54082;DHT22;39986;50.770;0.266;2022-10-31T07:22:17;14.80;99.90
54082;DHT22;39986;50.770;0.266;2022-10-31T07:24:42;14.80;99.90
54082;DHT22;39986;50.770;0.266;2022-10-31T07:27:08;14.80;99.90
54082;DHT22;39986;50.770;0.266;2022-10-31T07:29:35;14.90;99.90
54082;DHT22;39986;50.770;0.266;2022-10-31T07:32:03;14.90;99.90
54082;DHT22;39986;50.770;0.266;2022-10-31T07:34:28;15.00;99.90
54082;DHT22;39986;50.770;0.266;2022-10-31T07:36:54;15.00;99.90
54082;DHT22;39986;50.770;0.266;2022-10-31T07:39:20;15.10;99.90
54082;DHT22;39986;50.770;0.266;2022-10-31T07:41:49;15.20;99.90
54082;DHT22;39986;50.770;0.266;2022-10-31T07:44:17;15.30;99.90
54082;DHT22;39986;50.770;0.266;2022-10-31T07:46:42;15.40;99.90
54082;DHT22;39986;50.770;0.266;2022-10-31T07:49:08;15.50;99.90
54082;DHT22;39986;50.770;0.266;2022-10-31T07:51:34;15.30;99.90
54082;DHT22;39986;50.770;0.266;2022-10-31T07:53:59;15.60;99.90
54082;DHT22;39986;50.770;0.266;2022-10-31T07:56:25;15.70;99.90
54082;DHT22;39986;50.770;0.266;2022-10-31T07:58:50;15.70;99.90
54082;DHT22;39986;50.770;0.266;2022-10-31T08:01:16;15.70;99.90
54082;DHT22;39986;50.770;0.266;2022-10-31T08:03:41;15.80;99.90
54082;DHT22;39986;50.770;0.266;2022-10-31T08:06:07;15.90;99.90
54082;DHT22;39986;50.770;0.266;2022-10-31T08:08:32;16.00;99.90
54082;DHT22;39986;50.770;0.266;2022-10-31T08:10:59;16.10;99.90
54082;DHT22;39986;50.770;0.266;2022-10-31T08:13:24;16.20;99.90
54082;DHT22;39986;50.770;0.266;2022-10-31T08:15:50;16.50;99.90
54082;DHT22;39986;50.770;0.266;2022-10-31T08:18:18;16.60;99.90
54082;DHT22;39986;50.770;0.266;2022-10-31T08:20:44;16.90;99.90
54082;DHT22;39986;50.770;0.266;2022-10-31T08:23:10;17.10;99.90
54082;DHT22;39986;50.770;0.266;2022-10-31T08:25:37;17.10;99.90
54082;DHT22;39986;50.770;0.266;2022-10-31T08:28:02;17.00;99.90
54082;DHT22;39986;50.770;0.266;2022-10-31T08:36:35;17.20;99.90
54082;DHT22;39986;50.770;0.266;2022-10-31T08:39:00;17.50;99.90
54082;DHT22;39986;50.770;0.266;2022-10-31T08:41:26;16.20;99.90
54082;DHT22;39986;50.770;0.266;2022-10-31T08:43:56;17.40;99.90
54082;DHT22;39986;50.770;0.266;2022-10-31T08:46:21;17.50;99.90
54082;DHT22;39986;50.770;0.266;2022-10-31T08:48:47;17.50;99.90
54082;DHT22;39986;50.770;0.266;2022-10-31T08:51:13;17.60;99.90
54082;DHT22;39986;50.770;0.266;2022-10-31T08:53:39;17.50;99.90
54082;DHT22;39986;50.770;0.266;2022-10-31T08:56:04;17.60;99.90
54082;DHT22;39986;50.770;0.266;2022-10-31T08:58:30;17.50;99.90
54082;DHT22;39986;50.770;0.266;2022-10-31T09:00:55;17.60;99.90
54082;DHT22;39986;50.770;0.266;2022-10-31T09:03:25;17.80;99.90
54082;DHT22;39986;50.770;0.266;2022-10-31T09:05:54;17.90;99.90
54082;DHT22;39986;50.770;0.266;2022-10-31T09:08:20;17.90;99.90
54082;DHT22;39986;50.770;0.266;2022-10-31T09:10:45;18.00;99.90
54082;DHT22;39986;50.770;0.266;2022-10-31T09:13:18;18.10;99.90
54082;DHT22;39986;50.770;0.266;2022-10-31T09:15:45;18.40;99.90
54082;DHT22;39986;50.770;0.266;2022-10-31T09:18:12;17.30;99.90
54082;DHT22;39986;50.770;0.266;2022-10-31T09:20:38;18.30;99.90
54082;DHT22;39986;50.770;0.266;2022-10-31T09:23:05;18.10;99.90
54082;DHT22;39986;50.770;0.266;2022-10-31T09:25:31;18.10;99.90
54082;DHT22;39986;50.770;0.266;2022-10-31T09:27:57;18.20;99.90
54082;DHT22;39986;50.770;0.266;2022-10-31T09:30:24;18.20;99.90
54082;DHT22;39986;50.770;0.266;2022-10-31T09:33:00;18.20;99.90
54082;DHT22;39986;50.770;0.266;2022-10-31T09:35:26;18.30;99.90
54082;DHT22;39986;50.770;0.266;2022-10-31T09:37:58;18.30;99.90
54082;DHT22;39986;50.770;0.266;2022-10-31T09:40:25;18.60;99.90
54082;DHT22;39986;50.770;0.266;2022-10-31T09:42:59;18.50;99.90
54082;DHT22;39986;50.770;0.266;2022-10-31T09:50:53;18.90;99.90
54082;DHT22;39986;50.770;0.266;2022-10-31T09:53:23;19.00;99.90
54082;DHT22;39986;50.770;0.266;2022-10-31T09:55:49;19.00;99.90
54082;DHT22;39986;50.770;0.266;2022-10-31T09:58:16;18.90;99.90
54082;DHT22;39986;50.770;0.266;2022-10-31T10:00:44;19.20;99.90
54082;DHT22;39986;50.770;0.266;2022-10-31T10:03:12;19.70;99.90
54082;DHT22;39986;50.770;0.266;2022-10-31T10:05:46;20.30;99.90
54082;DHT22;39986;50.770;0.266;2022-10-31T10:08:20;20.70;99.90
54082;DHT22;39986;50.770;0.266;2022-10-31T10:10:50;21.40;99.90
54082;DHT22;39986;50.770;0.266;2022-10-31T10:22:00;24.00;99.90
54082;DHT22;39986;50.770;0.266;2022-10-31T10:26:25;23.70;99.90
54082;DHT22;39986;50.770;0.266;2022-10-31T10:31:39;22.80;99.90
54082;DHT22;39986;50.770;0.266;2022-10-31T10:36:39;23.00;99.90
54082;DHT22;39986;50.770;0.266;2022-10-31T10:39:29;23.60;99.90
54082;DHT22;39986;50.770;0.266;2022-10-31T10:41:55;24.60;99.90
54082;DHT22;39986;50.770;0.266;2022-10-31T10:44:45;24.90;99.90
54082;DHT22;39986;50.770;0.266;2022-10-31T10:47:33;24.20;99.90
54082;DHT22;39986;50.770;0.266;2022-10-31T10:50:08;22.70;99.90
54082;DHT22;39986;50.770;0.266;2022-10-31T10:52:42;22.10;99.90
54082;DHT22;39986;50.770;0.266;2022-10-31T10:58:01;23.00;99.90
54082;DHT22;39986;50.770;0.266;2022-10-31T11:00:44;23.30;99.90
54082;DHT22;39986;50.770;0.266;2022-10-31T11:03:15;23.70;99.90
54082;DHT22;39986;50.770;0.266;2022-10-31T11:05:47;24.70;99.90
54082;DHT22;39986;50.770;0.266;2022-10-31T11:08:26;22.80;99.90
54082;DHT22;39986;50.770;0.266;2022-10-31T11:10:59;20.80;99.90
54082;DHT22;39986;50.770;0.266;2022-10-31T11:13:26;20.30;99.90
54082;DHT22;39986;50.770;0.266;2022-10-31T11:15:54;22.90;99.90
54082;DHT22;39986;50.770;0.266;2022-10-31T11:18:22;21.90;99.90
54082;DHT22;39986;50.770;0.266;2022-10-31T11:20:53;21.70;99.90
54082;DHT22;39986;50.770;0.266;2022-10-31T11:23:22;20.60;99.90
54082;DHT22;39986;50.770;0.266;2022-10-31T11:25:55;19.70;99.90
54082;DHT22;39986;50.770;0.266;2022-10-31T11:28:21;18.60;99.90
54082;DHT22;39986;50.770;0.266;2022-10-31T11:30:48;18.30;99.90
54082;DHT22;39986;50.770;0.266;2022-10-31T11:33:21;19.30;99.90
54082;DHT22;39986;50.770;0.266;2022-10-31T11:35:48;19.60;99.90
54082;DHT22;39986;50.770;0.266;2022-10-31T11:38:18;19.30;99.90
54082;DHT22;39986;50.770;0.266;2022-10-31T11:40:54;18.80;99.90
54082;DHT22;39986;50.770;0.266;2022-10-31T11:43:21;18.30;99.90
54082;DHT22;39986;50.770;0.266;2022-10-31T11:45:47;18.20;99.90
54082;DHT22;39986;50.770;0.266;2022-10-31T11:48:17;18.20;99.90
54082;DHT22;39986;50.770;0.266;2022-10-31T11:50:47;18.10;99.90
54082;DHT22;39986;50.770;0.266;2022-10-31T11:53:17;17.90;99.90
54082;DHT22;39986;50.770;0.266;2022-10-31T11:55:44;17.80;99.90
54082;DHT22;39986;50.770;0.266;2022-10-31T11:58:22;17.90;99.90
54082;DHT22;39986;50.770;0.266;2022-10-31T12:00:50;18.00;99.90
54082;DHT22;39986;50.770;0.266;2022-10-31T12:05:58;17.70;99.90
54082;DHT22;39986;50.770;0.266;2022-10-31T12:08:25;17.70;99.90
54082;DHT22;39986;50.770;0.266;2022-10-31T12:13:32;16.00;99.90
54082;DHT22;39986;50.770;0.266;2022-10-31T12:16:12;17.70;99.90
54082;DHT22;39986;50.770;0.266;2022-10-31T12:21:22;18.30;99.90
54082;DHT22;39986;50.770;0.266;2022-10-31T12:23:56;18.30;99.90
54082;DHT22;39986;50.770;0.266;2022-10-31T12:34:21;17.80;99.90
54082;DHT22;39986;50.770;0.266;2022-10-31T12:37:00;17.90;99.90
54082;DHT22;39986;50.770;0.266;2022-10-31T12:44:44;17.50;99.90
54082;DHT22;39986;50.770;0.266;2022-10-31T12:52:48;17.20;99.90
54082;DHT22;39986;50.770;0.266;2022-10-31T12:55:35;17.10;99.90
54082;DHT22;39986;50.770;0.266;2022-10-31T13:00:38;17.00;99.90
54082;DHT22;39986;50.770;0.266;2022-10-31T13:05:41;16.80;99.90
54082;DHT22;39986;50.770;0.266;2022-10-31T13:08:18;16.90;99.90
54082;DHT22;39986;50.770;0.266;2022-10-31T13:16:00;17.00;99.90
54082;DHT22;39986;50.770;0.266;2022-10-31T13:18:30;16.90;99.90
54082;DHT22;39986;50.770;0.266;2022-10-31T13:20:57;17.10;99.90
54082;DHT22;39986;50.770;0.266;2022-10-31T13:23:28;17.00;99.90
54082;DHT22;39986;50.770;0.266;2022-10-31T13:25:55;17.10;99.90
54082;DHT22;39986;50.770;0.266;2022-10-31T13:30:58;17.00;99.90
54082;DHT22;39986;50.770;0.266;2022-10-31T13:36:13;17.00;99.90
54082;DHT22;39986;50.770;0.266;2022-10-31T13:38:51;17.10;99.90
54082;DHT22;39986;50.770;0.266;2022-10-31T13:44:08;17.10;99.90
54082;DHT22;39986;50.770;0.266;2022-10-31T13:46:39;17.20;99.90
54082;DHT22;39986;50.770;0.266;2022-10-31T13:51:49;17.70;99.90
54082;DHT22;39986;50.770;0.266;2022-10-31T13:54:33;17.80;99.90
54082;DHT22;39986;50.770;0.266;2022-10-31T13:56:59;18.00;99.90
54082;DHT22;39986;50.770;0.266;2022-10-31T13:59:26;18.00;99.90
54082;DHT22;39986;50.770;0.266;2022-10-31T14:01:56;18.20;99.90
54082;DHT22;39986;50.770;0.266;2022-10-31T14:04:24;19.50;99.90
54082;DHT22;39986;50.770;0.266;2022-10-31T14:09:38;20.70;99.90
54082;DHT22;39986;50.770;0.266;2022-10-31T14:12:05;20.90;99.90
54082;DHT22;39986;50.770;0.266;2022-10-31T14:14:34;19.90;99.90
54082;DHT22;39986;50.770;0.266;2022-10-31T14:17:00;18.90;99.90
54082;DHT22;39986;50.770;0.266;2022-10-31T14:19:26;18.50;99.90
54082;DHT22;39986;50.770;0.266;2022-10-31T14:21:55;18.00;99.90
54082;DHT22;39986;50.770;0.266;2022-10-31T14:26:56;17.60;99.90
54082;DHT22;39986;50.770;0.266;2022-10-31T14:29:25;17.50;99.90
54082;DHT22;39986;50.770;0.266;2022-10-31T14:31:55;17.40;99.90
54082;DHT22;39986;50.770;0.266;2022-10-31T14:34:29;17.30;99.90
54082;DHT22;39986;50.770;0.266;2022-10-31T14:37:01;17.10;99.90
54082;DHT22;39986;50.770;0.266;2022-10-31T14:42:11;17.10;99.90
54082;DHT22;39986;50.770;0.266;2022-10-31T14:52:37;17.00;99.90
54082;DHT22;39986;50.770;0.266;2022-10-31T14:55:05;16.90;99.90
54082;DHT22;39986;50.770;0.266;2022-10-31T14:57:32;16.80;99.90
54082;DHT22;39986;50.770;0.266;2022-10-31T15:00:01;16.80;99.90
54082;DHT22;39986;50.770;0.266;2022-10-31T15:02:31;16.80;99.90
54082;DHT22;39986;50.770;0.266;2022-10-31T15:04:59;16.80;99.90
54082;DHT22;39986;50.770;0.266;2022-10-31T15:07:26;16.80;99.90
54082;DHT22;39986;50.770;0.266;2022-10-31T15:09:56;16.80;99.90
54082;DHT22;39986;50.770;0.266;2022-10-31T15:14:47;16.80;99.90
54082;DHT22;39986;50.770;0.266;2022-10-31T15:17:13;16.90;99.90
54082;DHT22;39986;50.770;0.266;2022-10-31T15:19:39;17.30;99.90
54082;DHT22;39986;50.770;0.266;2022-10-31T15:22:05;16.90;99.90
54082;DHT22;39986;50.770;0.266;2022-10-31T15:24:34;16.90;99.90
54082;DHT22;39986;50.770;0.266;2022-10-31T15:27:00;17.00;99.90
54082;DHT22;39986;50.770;0.266;2022-10-31T15:29:27;16.90;99.90
54082;DHT22;39986;50.770;0.266;2022-10-31T15:32:15;17.00;99.90
54082;DHT22;39986;50.770;0.266;2022-10-31T15:34:43;16.90;99.90
54082;DHT22;39986;50.770;0.266;2022-10-31T15:37:13;16.90;99.90
54082;DHT22;39986;50.770;0.266;2022-10-31T15:39:40;16.90;99.90
54082;DHT22;39986;50.770;0.266;2022-10-31T15:44:40;16.90;99.90
54082;DHT22;39986;50.770;0.266;2022-10-31T15:47:13;16.90;99.90
54082;DHT22;39986;50.770;0.266;2022-10-31T15:49:41;16.90;99.90
54082;DHT22;39986;50.770;0.266;2022-10-31T15:54:33;16.90;99.90
54082;DHT22;39986;50.770;0.266;2022-10-31T15:56:58;16.90;99.90
54082;DHT22;39986;50.770;0.266;2022-10-31T15:59:25;17.00;99.90
54082;DHT22;39986;50.770;0.266;2022-10-31T16:02:02;16.90;99.90
54082;DHT22;39986;50.770;0.266;2022-10-31T16:04:28;16.90;99.90
54082;DHT22;39986;50.770;0.266;2022-10-31T16:06:59;16.90;99.90
54082;DHT22;39986;50.770;0.266;2022-10-31T16:09:26;16.90;99.90
54082;DHT22;39986;50.770;0.266;2022-10-31T16:11:51;16.90;99.90
54082;DHT22;39986;50.770;0.266;2022-10-31T16:14:18;16.80;99.90
54082;DHT22;39986;50.770;0.266;2022-10-31T16:16:54;16.80;99.90
54082;DHT22;39986;50.770;0.266;2022-10-31T16:21:46;16.70;99.90
54082;DHT22;39986;50.770;0.266;2022-10-31T16:24:23;16.60;99.90
54082;DHT22;39986;50.770;0.266;2022-10-31T16:26:51;16.60;99.90
54082;DHT22;39986;50.770;0.266;2022-10-31T16:31:52;16.40;99.90
54082;DHT22;39986;50.770;0.266;2022-10-31T16:34:22;16.40;99.90
54082;DHT22;39986;50.770;0.266;2022-10-31T16:36:48;16.40;99.90
54082;DHT22;39986;50.770;0.266;2022-10-31T16:39:13;15.00;99.90
54082;DHT22;39986;50.770;0.266;2022-10-31T16:41:40;16.40;99.90
54082;DHT22;39986;50.770;0.266;2022-10-31T16:44:11;16.40;99.90
54082;DHT22;39986;50.770;0.266;2022-10-31T16:46:39;16.50;99.90
54082;DHT22;39986;50.770;0.266;2022-10-31T16:49:07;16.50;99.90
54082;DHT22;39986;50.770;0.266;2022-10-31T16:51:33;16.50;99.90
54082;DHT22;39986;50.770;0.266;2022-10-31T16:53:58;16.50;99.90
54082;DHT22;39986;50.770;0.266;2022-10-31T16:56:26;16.60;99.90
54082;DHT22;39986;50.770;0.266;2022-10-31T16:58:52;16.60;99.90
54082;DHT22;39986;50.770;0.266;2022-10-31T17:01:18;16.60;99.90
54082;DHT22;39986;50.770;0.266;2022-10-31T17:03:44;15.60;99.90
54082;DHT22;39986;50.770;0.266;2022-10-31T17:06:13;16.70;99.90
54082;DHT22;39986;50.770;0.266;2022-10-31T17:08:39;16.70;99.90
54082;DHT22;39986;50.770;0.266;2022-10-31T17:11:04;16.80;99.90
54082;DHT22;39986;50.770;0.266;2022-10-31T17:13:30;16.80;99.90
54082;DHT22;39986;50.770;0.266;2022-10-31T17:15:57;16.80;99.90
54082;DHT22;39986;50.770;0.266;2022-10-31T17:18:23;16.80;99.90
54082;DHT22;39986;50.770;0.266;2022-10-31T17:20:49;16.80;99.90
54082;DHT22;39986;50.770;0.266;2022-10-31T17:23:15;16.80;99.90
54082;DHT22;39986;50.770;0.266;2022-10-31T17:25:41;16.80;99.90
54082;DHT22;39986;50.770;0.266;2022-10-31T17:28:07;16.80;99.90
54082;DHT22;39986;50.770;0.266;2022-10-31T17:30:35;16.90;99.90
54082;DHT22;39986;50.770;0.266;2022-10-31T17:33:06;17.00;99.90
54082;DHT22;39986;50.770;0.266;2022-10-31T17:35:56;16.80;99.90
54082;DHT22;39986;50.770;0.266;2022-10-31T17:38:24;16.90;99.90
54082;DHT22;39986;50.770;0.266;2022-10-31T17:40:49;16.90;99.90
54082;DHT22;39986;50.770;0.266;2022-10-31T17:43:15;16.90;99.90
54082;DHT22;39986;50.770;0.266;2022-10-31T17:45:41;17.00;99.90
54082;DHT22;39986;50.770;0.266;2022-10-31T17:48:08;16.90;99.90
54082;DHT22;39986;50.770;0.266;2022-10-31T17:50:35;17.00;99.90
54082;DHT22;39986;50.770;0.266;2022-10-31T17:53:00;17.20;99.90
54082;DHT22;39986;50.770;0.266;2022-10-31T17:55:26;17.00;99.90
54082;DHT22;39986;50.770;0.266;2022-10-31T17:57:51;17.00;99.90
54082;DHT22;39986;50.770;0.266;2022-10-31T18:00:18;17.00;99.90